sensor_id;sensor_type;location;lat;lon;timestamp;P1;durP1;ratioP1;P2;durP2;ratioP2
18142;SDS011;9197;50.930;3.140;2023-03-25T00:02:18;6.37;;;2.20;;
18142;SDS011;9197;50.930;3.140;2023-03-25T00:04:48;7.07;;;2.07;;
18142;SDS011;9197;50.930;3.140;2023-03-25T00:07:16;6.03;;;1.60;;
18142;SDS011;9197;50.930;3.140;2023-03-25T00:09:43;8.40;;;2.13;;
18142;SDS011;9197;50.930;3.140;2023-03-25T00:12:11;8.23;;;1.97;;
18142;SDS011;9197;50.930;3.140;2023-03-25T00:14:39;10.10;;;2.30;;
18142;SDS011;9197;50.930;3.140;2023-03-25T00:17:08;10.83;;;2.43;;
18142;SDS011;9197;50.930;3.140;2023-03-25T00:19:37;7.30;;;2.53;;
18142;SDS011;9197;50.930;3.140;2023-03-25T00:22:06;10.43;;;2.00;;
18142;SDS011;9197;50.930;3.140;2023-03-25T00:24:33;9.57;;;2.17;;
18142;SDS011;9197;50.930;3.140;2023-03-25T00:27:00;10.57;;;3.30;;
18142;SDS011;9197;50.930;3.140;2023-03-25T00:29:28;9.53;;;3.27;;
18142;SDS011;9197;50.930;3.140;2023-03-25T00:31:55;14.07;;;2.90;;
18142;SDS011;9197;50.930;3.140;2023-03-25T00:34:24;12.23;;;3.80;;
18142;SDS011;9197;50.930;3.140;2023-03-25T00:36:51;15.60;;;2.97;;
18142;SDS011;9197;50.930;3.140;2023-03-25T00:39:20;11.50;;;3.20;;
18142;SDS011;9197;50.930;3.140;2023-03-25T00:41:48;12.67;;;3.50;;
18142;SDS011;9197;50.930;3.140;2023-03-25T00:44:15;12.17;;;3.30;;
18142;SDS011;9197;50.930;3.140;2023-03-25T00:46:42;12.97;;;2.80;;
18142;SDS011;9197;50.930;3.140;2023-03-25T00:49:10;19.33;;;3.77;;
18142;SDS011;9197;50.930;3.140;2023-03-25T00:51:39;17.23;;;3.10;;
18142;SDS011;9197;50.930;3.140;2023-03-25T00:54:06;13.10;;;2.90;;
18142;SDS011;9197;50.930;3.140;2023-03-25T00:56:34;15.20;;;3.67;;
18142;SDS011;9197;50.930;3.140;2023-03-25T00:59:01;18.97;;;4.20;;
18142;SDS011;9197;50.930;3.140;2023-03-25T01:01:28;17.83;;;3.17;;
18142;SDS011;9197;50.930;3.140;2023-03-25T01:03:56;17.60;;;4.43;;
18142;SDS011;9197;50.930;3.140;2023-03-25T01:06:24;15.63;;;3.13;;
18142;SDS011;9197;50.930;3.140;2023-03-25T01:08:55;16.17;;;3.20;;
18142;SDS011;9197;50.930;3.140;2023-03-25T01:11:24;18.30;;;3.47;;
18142;SDS011;9197;50.930;3.140;2023-03-25T01:13:53;11.30;;;4.17;;
18142;SDS011;9197;50.930;3.140;2023-03-25T01:16:20;12.80;;;3.37;;
18142;SDS011;9197;50.930;3.140;2023-03-25T01:18:48;21.67;;;4.70;;
18142;SDS011;9197;50.930;3.140;2023-03-25T01:21:15;13.33;;;4.03;;
18142;SDS011;9197;50.930;3.140;2023-03-25T01:23:43;16.57;;;3.73;;
18142;SDS011;9197;50.930;3.140;2023-03-25T01:26:11;13.23;;;3.93;;
18142;SDS011;9197;50.930;3.140;2023-03-25T01:28:39;15.23;;;3.80;;
18142;SDS011;9197;50.930;3.140;2023-03-25T01:31:07;16.47;;;3.43;;
18142;SDS011;9197;50.930;3.140;2023-03-25T01:33:35;21.13;;;3.90;;
18142;SDS011;9197;50.930;3.140;2023-03-25T01:36:02;19.40;;;3.97;;
18142;SDS011;9197;50.930;3.140;2023-03-25T01:38:33;16.97;;;3.63;;
18142;SDS011;9197;50.930;3.140;2023-03-25T01:41:01;16.00;;;3.50;;
18142;SDS011;9197;50.930;3.140;2023-03-25T01:43:30;17.80;;;3.50;;
18142;SDS011;9197;50.930;3.140;2023-03-25T01:45:58;14.73;;;3.57;;
18142;SDS011;9197;50.930;3.140;2023-03-25T01:48:26;15.30;;;3.67;;
18142;SDS011;9197;50.930;3.140;2023-03-25T01:50:57;15.10;;;3.27;;
18142;SDS011;9197;50.930;3.140;2023-03-25T01:53:27;18.23;;;3.57;;
18142;SDS011;9197;50.930;3.140;2023-03-25T01:55:55;15.20;;;3.03;;
18142;SDS011;9197;50.930;3.140;2023-03-25T01:58:23;16.10;;;3.27;;
18142;SDS011;9197;50.930;3.140;2023-03-25T02:00:54;16.37;;;3.13;;
18142;SDS011;9197;50.930;3.140;2023-03-25T02:03:21;15.37;;;4.10;;
18142;SDS011;9197;50.930;3.140;2023-03-25T02:05:51;15.80;;;3.93;;
18142;SDS011;9197;50.930;3.140;2023-03-25T02:08:21;10.77;;;3.27;;
18142;SDS011;9197;50.930;3.140;2023-03-25T02:10:49;16.47;;;4.83;;
18142;SDS011;9197;50.930;3.140;2023-03-25T02:13:16;15.33;;;4.27;;
18142;SDS011;9197;50.930;3.140;2023-03-25T02:15:49;15.40;;;3.20;;
18142;SDS011;9197;50.930;3.140;2023-03-25T02:18:27;19.00;;;3.70;;
18142;SDS011;9197;50.930;3.140;2023-03-25T02:24:00;13.23;;;3.17;;
18142;SDS011;9197;50.930;3.140;2023-03-25T02:29:21;10.50;;;3.60;;
18142;SDS011;9197;50.930;3.140;2023-03-25T02:31:54;16.50;;;3.70;;
18142;SDS011;9197;50.930;3.140;2023-03-25T02:34:34;14.90;;;3.93;;
18142;SDS011;9197;50.930;3.140;2023-03-25T02:39:52;11.80;;;2.90;;
18142;SDS011;9197;50.930;3.140;2023-03-25T02:42:24;16.80;;;3.10;;
18142;SDS011;9197;50.930;3.140;2023-03-25T02:44:53;10.50;;;2.47;;
18142;SDS011;9197;50.930;3.140;2023-03-25T02:47:22;9.63;;;2.67;;
18142;SDS011;9197;50.930;3.140;2023-03-25T02:49:51;18.23;;;3.47;;
18142;SDS011;9197;50.930;3.140;2023-03-25T02:52:22;8.10;;;1.97;;
18142;SDS011;9197;50.930;3.140;2023-03-25T02:54:52;8.97;;;2.47;;
18142;SDS011;9197;50.930;3.140;2023-03-25T02:57:22;4.77;;;1.90;;
18142;SDS011;9197;50.930;3.140;2023-03-25T02:59:52;6.10;;;2.10;;
18142;SDS011;9197;50.930;3.140;2023-03-25T03:02:20;8.90;;;2.83;;
18142;SDS011;9197;50.930;3.140;2023-03-25T03:04:50;12.50;;;2.43;;
18142;SDS011;9197;50.930;3.140;2023-03-25T03:07:20;9.07;;;2.43;;
18142;SDS011;9197;50.930;3.140;2023-03-25T03:09:51;10.53;;;2.83;;
18142;SDS011;9197;50.930;3.140;2023-03-25T03:12:23;7.73;;;1.80;;
18142;SDS011;9197;50.930;3.140;2023-03-25T03:15:04;4.47;;;2.10;;
18142;SDS011;9197;50.930;3.140;2023-03-25T03:17:35;13.43;;;2.90;;
18142;SDS011;9197;50.930;3.140;2023-03-25T03:20:06;5.07;;;2.40;;
18142;SDS011;9197;50.930;3.140;2023-03-25T03:22:37;5.97;;;1.97;;
18142;SDS011;9197;50.930;3.140;2023-03-25T03:25:08;9.57;;;1.87;;
18142;SDS011;9197;50.930;3.140;2023-03-25T03:27:37;8.57;;;2.17;;
18142;SDS011;9197;50.930;3.140;2023-03-25T03:30:08;5.57;;;1.33;;
18142;SDS011;9197;50.930;3.140;2023-03-25T03:32:38;8.90;;;1.53;;
18142;SDS011;9197;50.930;3.140;2023-03-25T03:35:08;6.40;;;1.97;;
18142;SDS011;9197;50.930;3.140;2023-03-25T03:37:38;6.10;;;1.50;;
18142;SDS011;9197;50.930;3.140;2023-03-25T03:40:09;7.00;;;1.37;;
18142;SDS011;9197;50.930;3.140;2023-03-25T03:42:39;7.60;;;1.93;;
18142;SDS011;9197;50.930;3.140;2023-03-25T03:45:07;4.83;;;1.57;;
18142;SDS011;9197;50.930;3.140;2023-03-25T03:47:37;9.87;;;2.10;;
18142;SDS011;9197;50.930;3.140;2023-03-25T03:50:06;9.60;;;2.10;;
18142;SDS011;9197;50.930;3.140;2023-03-25T03:52:35;10.20;;;2.03;;
18142;SDS011;9197;50.930;3.140;2023-03-25T03:55:03;8.73;;;1.93;;
18142;SDS011;9197;50.930;3.140;2023-03-25T03:57:37;6.03;;;1.83;;
18142;SDS011;9197;50.930;3.140;2023-03-25T04:00:06;10.27;;;2.10;;
18142;SDS011;9197;50.930;3.140;2023-03-25T04:02:39;10.50;;;2.37;;
18142;SDS011;9197;50.930;3.140;2023-03-25T04:05:08;11.80;;;2.60;;
18142;SDS011;9197;50.930;3.140;2023-03-25T04:07:38;15.93;;;3.63;;
18142;SDS011;9197;50.930;3.140;2023-03-25T04:10:08;8.70;;;2.27;;
18142;SDS011;9197;50.930;3.140;2023-03-25T04:12:41;9.23;;;2.00;;
18142;SDS011;9197;50.930;3.140;2023-03-25T04:15:10;9.73;;;1.93;;
18142;SDS011;9197;50.930;3.140;2023-03-25T04:17:38;7.17;;;2.37;;
18142;SDS011;9197;50.930;3.140;2023-03-25T04:20:07;15.63;;;2.53;;
18142;SDS011;9197;50.930;3.140;2023-03-25T04:22:36;12.67;;;2.70;;
18142;SDS011;9197;50.930;3.140;2023-03-25T04:25:04;8.63;;;2.50;;
18142;SDS011;9197;50.930;3.140;2023-03-25T04:27:31;6.50;;;2.17;;
18142;SDS011;9197;50.930;3.140;2023-03-25T04:30:03;8.17;;;2.50;;
18142;SDS011;9197;50.930;3.140;2023-03-25T04:32:31;8.03;;;2.53;;
18142;SDS011;9197;50.930;3.140;2023-03-25T04:34:59;12.83;;;2.63;;
18142;SDS011;9197;50.930;3.140;2023-03-25T04:37:26;12.23;;;4.00;;
18142;SDS011;9197;50.930;3.140;2023-03-25T04:39:54;11.43;;;3.30;;
18142;SDS011;9197;50.930;3.140;2023-03-25T04:42:24;8.73;;;3.00;;
18142;SDS011;9197;50.930;3.140;2023-03-25T04:44:57;11.00;;;2.53;;
18142;SDS011;9197;50.930;3.140;2023-03-25T04:47:25;17.47;;;4.07;;
18142;SDS011;9197;50.930;3.140;2023-03-25T04:49:53;11.97;;;2.43;;
18142;SDS011;9197;50.930;3.140;2023-03-25T04:52:20;13.20;;;3.30;;
18142;SDS011;9197;50.930;3.140;2023-03-25T04:54:48;18.33;;;3.50;;
18142;SDS011;9197;50.930;3.140;2023-03-25T04:57:15;12.70;;;3.60;;
18142;SDS011;9197;50.930;3.140;2023-03-25T04:59:42;12.80;;;3.20;;
18142;SDS011;9197;50.930;3.140;2023-03-25T05:02:10;12.40;;;3.47;;
18142;SDS011;9197;50.930;3.140;2023-03-25T05:04:39;13.00;;;2.93;;
18142;SDS011;9197;50.930;3.140;2023-03-25T05:07:11;12.77;;;3.07;;
18142;SDS011;9197;50.930;3.140;2023-03-25T05:09:40;15.90;;;3.67;;
18142;SDS011;9197;50.930;3.140;2023-03-25T05:12:07;16.10;;;3.23;;
18142;SDS011;9197;50.930;3.140;2023-03-25T05:14:35;13.43;;;3.63;;
18142;SDS011;9197;50.930;3.140;2023-03-25T05:17:03;16.30;;;3.27;;
18142;SDS011;9197;50.930;3.140;2023-03-25T05:19:30;13.40;;;3.13;;
18142;SDS011;9197;50.930;3.140;2023-03-25T05:22:00;11.57;;;3.00;;
18142;SDS011;9197;50.930;3.140;2023-03-25T05:24:28;17.63;;;4.20;;
18142;SDS011;9197;50.930;3.140;2023-03-25T05:26:56;16.20;;;2.70;;
18142;SDS011;9197;50.930;3.140;2023-03-25T05:29:26;17.13;;;4.40;;
18142;SDS011;9197;50.930;3.140;2023-03-25T05:31:58;18.87;;;3.37;;
18142;SDS011;9197;50.930;3.140;2023-03-25T05:34:25;9.23;;;3.23;;
18142;SDS011;9197;50.930;3.140;2023-03-25T05:36:54;17.40;;;2.63;;
18142;SDS011;9197;50.930;3.140;2023-03-25T05:39:22;15.70;;;3.97;;
18142;SDS011;9197;50.930;3.140;2023-03-25T05:41:50;14.57;;;3.27;;
18142;SDS011;9197;50.930;3.140;2023-03-25T05:44:19;16.37;;;3.97;;
18142;SDS011;9197;50.930;3.140;2023-03-25T05:46:47;16.30;;;3.87;;
18142;SDS011;9197;50.930;3.140;2023-03-25T05:49:14;14.70;;;3.77;;
18142;SDS011;9197;50.930;3.140;2023-03-25T05:51:41;18.57;;;4.53;;
18142;SDS011;9197;50.930;3.140;2023-03-25T05:54:09;20.77;;;3.33;;
18142;SDS011;9197;50.930;3.140;2023-03-25T05:56:37;14.87;;;3.70;;
18142;SDS011;9197;50.930;3.140;2023-03-25T05:59:05;14.40;;;2.83;;
18142;SDS011;9197;50.930;3.140;2023-03-25T06:01:34;18.23;;;4.13;;
18142;SDS011;9197;50.930;3.140;2023-03-25T06:04:02;16.90;;;4.00;;
18142;SDS011;9197;50.930;3.140;2023-03-25T06:06:33;20.00;;;3.60;;
18142;SDS011;9197;50.930;3.140;2023-03-25T06:09:01;15.40;;;4.00;;
18142;SDS011;9197;50.930;3.140;2023-03-25T06:11:29;18.03;;;4.60;;
18142;SDS011;9197;50.930;3.140;2023-03-25T06:14:03;15.27;;;4.03;;
18142;SDS011;9197;50.930;3.140;2023-03-25T06:16:31;19.30;;;3.90;;
18142;SDS011;9197;50.930;3.140;2023-03-25T06:18:59;20.07;;;4.20;;
18142;SDS011;9197;50.930;3.140;2023-03-25T06:21:27;24.03;;;4.47;;
18142;SDS011;9197;50.930;3.140;2023-03-25T06:23:57;18.63;;;4.27;;
18142;SDS011;9197;50.930;3.140;2023-03-25T06:26:25;17.30;;;4.30;;
18142;SDS011;9197;50.930;3.140;2023-03-25T06:28:52;20.83;;;5.23;;
18142;SDS011;9197;50.930;3.140;2023-03-25T06:31:22;15.63;;;3.50;;
18142;SDS011;9197;50.930;3.140;2023-03-25T06:33:50;14.57;;;3.50;;
18142;SDS011;9197;50.930;3.140;2023-03-25T06:36:18;19.80;;;5.97;;
18142;SDS011;9197;50.930;3.140;2023-03-25T06:38:46;16.90;;;4.03;;
18142;SDS011;9197;50.930;3.140;2023-03-25T06:41:14;17.57;;;4.37;;
18142;SDS011;9197;50.930;3.140;2023-03-25T06:43:44;19.00;;;4.87;;
18142;SDS011;9197;50.930;3.140;2023-03-25T06:46:11;24.10;;;4.33;;
18142;SDS011;9197;50.930;3.140;2023-03-25T06:48:40;24.53;;;4.17;;
18142;SDS011;9197;50.930;3.140;2023-03-25T06:51:08;21.23;;;4.30;;
18142;SDS011;9197;50.930;3.140;2023-03-25T06:53:35;19.40;;;5.03;;
18142;SDS011;9197;50.930;3.140;2023-03-25T06:56:03;15.83;;;4.57;;
18142;SDS011;9197;50.930;3.140;2023-03-25T06:58:30;23.47;;;4.07;;
18142;SDS011;9197;50.930;3.140;2023-03-25T07:00:59;20.20;;;3.97;;
18142;SDS011;9197;50.930;3.140;2023-03-25T07:03:30;19.93;;;5.60;;
18142;SDS011;9197;50.930;3.140;2023-03-25T07:05:59;18.57;;;4.07;;
18142;SDS011;9197;50.930;3.140;2023-03-25T07:08:26;22.10;;;4.67;;
18142;SDS011;9197;50.930;3.140;2023-03-25T07:10:58;16.20;;;4.07;;
18142;SDS011;9197;50.930;3.140;2023-03-25T07:13:26;18.63;;;4.57;;
18142;SDS011;9197;50.930;3.140;2023-03-25T07:15:55;29.93;;;4.80;;
18142;SDS011;9197;50.930;3.140;2023-03-25T07:18:22;20.23;;;4.20;;
18142;SDS011;9197;50.930;3.140;2023-03-25T07:20:50;16.13;;;4.60;;
18142;SDS011;9197;50.930;3.140;2023-03-25T07:23:18;20.97;;;5.37;;
18142;SDS011;9197;50.930;3.140;2023-03-25T07:25:46;18.37;;;4.23;;
18142;SDS011;9197;50.930;3.140;2023-03-25T07:28:13;28.47;;;4.63;;
18142;SDS011;9197;50.930;3.140;2023-03-25T07:30:41;20.13;;;4.80;;
18142;SDS011;9197;50.930;3.140;2023-03-25T07:33:08;20.97;;;4.87;;
18142;SDS011;9197;50.930;3.140;2023-03-25T07:35:36;17.30;;;4.27;;
18142;SDS011;9197;50.930;3.140;2023-03-25T07:38:03;21.70;;;4.80;;
18142;SDS011;9197;50.930;3.140;2023-03-25T07:40:32;19.67;;;4.17;;
18142;SDS011;9197;50.930;3.140;2023-03-25T07:42:59;15.20;;;4.07;;
18142;SDS011;9197;50.930;3.140;2023-03-25T07:45:27;25.73;;;4.13;;
18142;SDS011;9197;50.930;3.140;2023-03-25T07:47:54;21.37;;;5.67;;
18142;SDS011;9197;50.930;3.140;2023-03-25T07:50:22;16.47;;;5.07;;
18142;SDS011;9197;50.930;3.140;2023-03-25T07:52:49;21.20;;;4.47;;
18142;SDS011;9197;50.930;3.140;2023-03-25T07:55:17;17.60;;;4.60;;
18142;SDS011;9197;50.930;3.140;2023-03-25T07:57:45;20.63;;;4.80;;
18142;SDS011;9197;50.930;3.140;2023-03-25T08:00:13;21.73;;;4.70;;
18142;SDS011;9197;50.930;3.140;2023-03-25T08:02:40;15.83;;;4.07;;
18142;SDS011;9197;50.930;3.140;2023-03-25T08:05:08;16.10;;;5.40;;
18142;SDS011;9197;50.930;3.140;2023-03-25T08:07:36;18.07;;;4.17;;
18142;SDS011;9197;50.930;3.140;2023-03-25T08:10:04;18.77;;;4.57;;
18142;SDS011;9197;50.930;3.140;2023-03-25T08:12:32;17.33;;;4.90;;
18142;SDS011;9197;50.930;3.140;2023-03-25T08:15:02;13.37;;;3.80;;
18142;SDS011;9197;50.930;3.140;2023-03-25T08:17:30;13.20;;;4.13;;
18142;SDS011;9197;50.930;3.140;2023-03-25T08:19:58;12.97;;;4.10;;
18142;SDS011;9197;50.930;3.140;2023-03-25T08:22:28;15.30;;;4.23;;
18142;SDS011;9197;50.930;3.140;2023-03-25T08:24:56;16.37;;;3.73;;
18142;SDS011;9197;50.930;3.140;2023-03-25T08:27:23;20.07;;;4.33;;
18142;SDS011;9197;50.930;3.140;2023-03-25T08:29:51;20.33;;;4.77;;
18142;SDS011;9197;50.930;3.140;2023-03-25T08:32:23;16.07;;;4.23;;
18142;SDS011;9197;50.930;3.140;2023-03-25T08:34:51;13.60;;;3.90;;
18142;SDS011;9197;50.930;3.140;2023-03-25T08:37:19;15.33;;;3.70;;
18142;SDS011;9197;50.930;3.140;2023-03-25T08:39:46;12.40;;;3.90;;
18142;SDS011;9197;50.930;3.140;2023-03-25T08:42:14;18.77;;;3.73;;
18142;SDS011;9197;50.930;3.140;2023-03-25T08:44:42;17.67;;;4.67;;
18142;SDS011;9197;50.930;3.140;2023-03-25T08:47:09;18.83;;;4.73;;
18142;SDS011;9197;50.930;3.140;2023-03-25T08:49:38;23.47;;;4.33;;
18142;SDS011;9197;50.930;3.140;2023-03-25T08:52:05;18.17;;;3.83;;
18142;SDS011;9197;50.930;3.140;2023-03-25T08:54:34;21.40;;;4.57;;
18142;SDS011;9197;50.930;3.140;2023-03-25T08:57:01;18.63;;;4.40;;
18142;SDS011;9197;50.930;3.140;2023-03-25T08:59:29;21.93;;;5.87;;
18142;SDS011;9197;50.930;3.140;2023-03-25T09:01:57;19.93;;;4.83;;
18142;SDS011;9197;50.930;3.140;2023-03-25T09:04:24;18.50;;;4.90;;
18142;SDS011;9197;50.930;3.140;2023-03-25T09:06:53;16.40;;;4.17;;
18142;SDS011;9197;50.930;3.140;2023-03-25T09:09:20;24.47;;;4.40;;
18142;SDS011;9197;50.930;3.140;2023-03-25T09:11:48;14.53;;;4.27;;
18142;SDS011;9197;50.930;3.140;2023-03-25T09:14:15;14.47;;;3.83;;
18142;SDS011;9197;50.930;3.140;2023-03-25T09:16:42;16.90;;;5.40;;
18142;SDS011;9197;50.930;3.140;2023-03-25T09:19:09;14.67;;;3.57;;
18142;SDS011;9197;50.930;3.140;2023-03-25T09:21:36;15.00;;;4.07;;
18142;SDS011;9197;50.930;3.140;2023-03-25T09:24:06;17.00;;;4.60;;
18142;SDS011;9197;50.930;3.140;2023-03-25T09:26:33;18.63;;;4.33;;
18142;SDS011;9197;50.930;3.140;2023-03-25T09:29:00;15.90;;;3.77;;
18142;SDS011;9197;50.930;3.140;2023-03-25T09:31:28;21.37;;;4.73;;
18142;SDS011;9197;50.930;3.140;2023-03-25T09:33:55;24.67;;;6.03;;
18142;SDS011;9197;50.930;3.140;2023-03-25T09:36:23;21.60;;;4.33;;
18142;SDS011;9197;50.930;3.140;2023-03-25T09:38:50;13.53;;;4.33;;
18142;SDS011;9197;50.930;3.140;2023-03-25T09:41:25;19.63;;;4.43;;
18142;SDS011;9197;50.930;3.140;2023-03-25T09:43:58;19.67;;;4.90;;
18142;SDS011;9197;50.930;3.140;2023-03-25T09:46:27;19.40;;;5.23;;
18142;SDS011;9197;50.930;3.140;2023-03-25T09:48:55;14.93;;;4.17;;
18142;SDS011;9197;50.930;3.140;2023-03-25T09:51:23;17.23;;;4.87;;
18142;SDS011;9197;50.930;3.140;2023-03-25T09:53:53;21.13;;;4.30;;
18142;SDS011;9197;50.930;3.140;2023-03-25T09:56:24;14.73;;;3.37;;
18142;SDS011;9197;50.930;3.140;2023-03-25T09:58:53;20.87;;;3.63;;
18142;SDS011;9197;50.930;3.140;2023-03-25T10:01:25;12.97;;;3.37;;
18142;SDS011;9197;50.930;3.140;2023-03-25T10:03:55;13.30;;;3.73;;
18142;SDS011;9197;50.930;3.140;2023-03-25T10:06:25;16.37;;;3.53;;
18142;SDS011;9197;50.930;3.140;2023-03-25T10:11:48;16.67;;;3.53;;
18142;SDS011;9197;50.930;3.140;2023-03-25T10:14:23;18.30;;;4.13;;
18142;SDS011;9197;50.930;3.140;2023-03-25T10:16:56;16.33;;;4.43;;
18142;SDS011;9197;50.930;3.140;2023-03-25T10:19:30;15.10;;;3.80;;
18142;SDS011;9197;50.930;3.140;2023-03-25T10:22:03;17.20;;;3.77;;
18142;SDS011;9197;50.930;3.140;2023-03-25T10:24:31;10.10;;;3.33;;
18142;SDS011;9197;50.930;3.140;2023-03-25T10:27:02;23.17;;;4.70;;
18142;SDS011;9197;50.930;3.140;2023-03-25T10:29:32;16.50;;;4.67;;
18142;SDS011;9197;50.930;3.140;2023-03-25T10:32:01;14.47;;;3.43;;
18142;SDS011;9197;50.930;3.140;2023-03-25T10:34:33;11.33;;;2.87;;
18142;SDS011;9197;50.930;3.140;2023-03-25T10:37:02;11.97;;;3.33;;
18142;SDS011;9197;50.930;3.140;2023-03-25T10:39:30;14.70;;;3.30;;
18142;SDS011;9197;50.930;3.140;2023-03-25T10:42:09;18.00;;;3.97;;
18142;SDS011;9197;50.930;3.140;2023-03-25T10:44:39;13.43;;;3.83;;
18142;SDS011;9197;50.930;3.140;2023-03-25T10:47:07;11.73;;;2.67;;
18142;SDS011;9197;50.930;3.140;2023-03-25T10:49:36;12.63;;;2.60;;
18142;SDS011;9197;50.930;3.140;2023-03-25T10:52:06;10.50;;;2.90;;
18142;SDS011;9197;50.930;3.140;2023-03-25T10:54:35;8.43;;;2.67;;
18142;SDS011;9197;50.930;3.140;2023-03-25T10:57:06;12.53;;;3.10;;
18142;SDS011;9197;50.930;3.140;2023-03-25T10:59:34;11.47;;;3.03;;
18142;SDS011;9197;50.930;3.140;2023-03-25T11:02:09;13.40;;;3.77;;
18142;SDS011;9197;50.930;3.140;2023-03-25T11:04:38;14.67;;;3.40;;
18142;SDS011;9197;50.930;3.140;2023-03-25T11:07:08;17.33;;;3.73;;
18142;SDS011;9197;50.930;3.140;2023-03-25T11:09:40;15.40;;;3.63;;
18142;SDS011;9197;50.930;3.140;2023-03-25T11:12:09;11.20;;;3.20;;
18142;SDS011;9197;50.930;3.140;2023-03-25T11:14:38;11.43;;;2.97;;
18142;SDS011;9197;50.930;3.140;2023-03-25T11:17:06;11.93;;;3.40;;
18142;SDS011;9197;50.930;3.140;2023-03-25T11:19:38;15.17;;;3.37;;
18142;SDS011;9197;50.930;3.140;2023-03-25T11:22:07;11.30;;;3.33;;
18142;SDS011;9197;50.930;3.140;2023-03-25T11:24:39;15.57;;;4.63;;
18142;SDS011;9197;50.930;3.140;2023-03-25T11:27:07;11.07;;;3.67;;
18142;SDS011;9197;50.930;3.140;2023-03-25T11:29:36;17.07;;;5.00;;
18142;SDS011;9197;50.930;3.140;2023-03-25T11:32:05;20.23;;;4.77;;
18142;SDS011;9197;50.930;3.140;2023-03-25T11:34:34;15.03;;;3.80;;
18142;SDS011;9197;50.930;3.140;2023-03-25T11:37:11;13.47;;;3.80;;
18142;SDS011;9197;50.930;3.140;2023-03-25T11:39:41;15.93;;;4.60;;
18142;SDS011;9197;50.930;3.140;2023-03-25T11:42:11;15.43;;;4.20;;
18142;SDS011;9197;50.930;3.140;2023-03-25T11:44:42;15.53;;;4.23;;
18142;SDS011;9197;50.930;3.140;2023-03-25T11:47:09;19.20;;;4.77;;
18142;SDS011;9197;50.930;3.140;2023-03-25T11:49:42;18.53;;;4.23;;
18142;SDS011;9197;50.930;3.140;2023-03-25T11:52:12;11.77;;;4.20;;
18142;SDS011;9197;50.930;3.140;2023-03-25T11:54:41;13.33;;;3.70;;
18142;SDS011;9197;50.930;3.140;2023-03-25T11:57:10;16.93;;;4.67;;
18142;SDS011;9197;50.930;3.140;2023-03-25T11:59:43;17.17;;;3.90;;
18142;SDS011;9197;50.930;3.140;2023-03-25T12:02:20;19.60;;;4.53;;
18142;SDS011;9197;50.930;3.140;2023-03-25T12:04:55;13.23;;;3.70;;
18142;SDS011;9197;50.930;3.140;2023-03-25T12:07:23;17.03;;;3.80;;
18142;SDS011;9197;50.930;3.140;2023-03-25T12:09:55;14.53;;;3.60;;
18142;SDS011;9197;50.930;3.140;2023-03-25T12:12:29;12.40;;;3.63;;
18142;SDS011;9197;50.930;3.140;2023-03-25T12:15:04;14.47;;;3.67;;
18142;SDS011;9197;50.930;3.140;2023-03-25T12:17:36;12.50;;;3.03;;
18142;SDS011;9197;50.930;3.140;2023-03-25T12:20:09;14.93;;;3.83;;
18142;SDS011;9197;50.930;3.140;2023-03-25T12:22:52;16.13;;;3.23;;
18142;SDS011;9197;50.930;3.140;2023-03-25T12:25:27;12.43;;;2.90;;
18142;SDS011;9197;50.930;3.140;2023-03-25T12:28:09;12.83;;;3.73;;
18142;SDS011;9197;50.930;3.140;2023-03-25T12:30:43;13.03;;;3.27;;
18142;SDS011;9197;50.930;3.140;2023-03-25T12:33:16;14.53;;;3.40;;
18142;SDS011;9197;50.930;3.140;2023-03-25T12:35:56;11.20;;;3.50;;
18142;SDS011;9197;50.930;3.140;2023-03-25T12:38:28;17.83;;;4.00;;
18142;SDS011;9197;50.930;3.140;2023-03-25T12:41:02;13.77;;;3.90;;
18142;SDS011;9197;50.930;3.140;2023-03-25T12:43:33;15.97;;;3.93;;
18142;SDS011;9197;50.930;3.140;2023-03-25T12:46:10;13.10;;;3.10;;
18142;SDS011;9197;50.930;3.140;2023-03-25T12:48:50;15.50;;;3.80;;
18142;SDS011;9197;50.930;3.140;2023-03-25T12:51:23;12.60;;;3.60;;
18142;SDS011;9197;50.930;3.140;2023-03-25T12:53:56;10.37;;;3.03;;
18142;SDS011;9197;50.930;3.140;2023-03-25T12:56:29;12.67;;;3.87;;
18142;SDS011;9197;50.930;3.140;2023-03-25T12:59:05;12.20;;;3.67;;
18142;SDS011;9197;50.930;3.140;2023-03-25T13:01:39;12.17;;;3.73;;
18142;SDS011;9197;50.930;3.140;2023-03-25T13:04:11;16.67;;;3.80;;
18142;SDS011;9197;50.930;3.140;2023-03-25T13:06:43;13.80;;;3.70;;
18142;SDS011;9197;50.930;3.140;2023-03-25T13:09:14;11.73;;;3.50;;
18142;SDS011;9197;50.930;3.140;2023-03-25T13:11:45;10.20;;;2.47;;
18142;SDS011;9197;50.930;3.140;2023-03-25T13:14:14;14.90;;;2.87;;
18142;SDS011;9197;50.930;3.140;2023-03-25T13:16:45;12.77;;;3.00;;
18142;SDS011;9197;50.930;3.140;2023-03-25T13:19:15;9.70;;;3.00;;
18142;SDS011;9197;50.930;3.140;2023-03-25T13:21:44;13.30;;;3.07;;
18142;SDS011;9197;50.930;3.140;2023-03-25T13:24:15;11.80;;;2.87;;
18142;SDS011;9197;50.930;3.140;2023-03-25T13:26:44;9.00;;;3.13;;
18142;SDS011;9197;50.930;3.140;2023-03-25T13:29:20;16.70;;;3.27;;
18142;SDS011;9197;50.930;3.140;2023-03-25T13:31:50;14.67;;;3.43;;
18142;SDS011;9197;50.930;3.140;2023-03-25T13:34:20;12.60;;;3.10;;
18142;SDS011;9197;50.930;3.140;2023-03-25T13:36:55;13.80;;;4.20;;
18142;SDS011;9197;50.930;3.140;2023-03-25T13:39:25;10.57;;;2.27;;
18142;SDS011;9197;50.930;3.140;2023-03-25T13:41:54;14.40;;;3.07;;
18142;SDS011;9197;50.930;3.140;2023-03-25T13:44:24;14.20;;;3.10;;
18142;SDS011;9197;50.930;3.140;2023-03-25T13:46:54;13.90;;;2.87;;
18142;SDS011;9197;50.930;3.140;2023-03-25T13:49:24;15.97;;;3.70;;
18142;SDS011;9197;50.930;3.140;2023-03-25T13:51:53;11.90;;;3.67;;
18142;SDS011;9197;50.930;3.140;2023-03-25T13:54:21;12.63;;;3.67;;
18142;SDS011;9197;50.930;3.140;2023-03-25T13:57:15;16.50;;;2.57;;
18142;SDS011;9197;50.930;3.140;2023-03-25T14:05:33;16.10;;;3.43;;
18142;SDS011;9197;50.930;3.140;2023-03-25T14:10:54;12.77;;;3.63;;
18142;SDS011;9197;50.930;3.140;2023-03-25T14:13:26;13.93;;;2.87;;
18142;SDS011;9197;50.930;3.140;2023-03-25T14:15:57;12.37;;;3.47;;
18142;SDS011;9197;50.930;3.140;2023-03-25T14:18:25;9.77;;;2.30;;
18142;SDS011;9197;50.930;3.140;2023-03-25T14:20:57;9.67;;;3.50;;
18142;SDS011;9197;50.930;3.140;2023-03-25T14:23:25;12.57;;;3.07;;
18142;SDS011;9197;50.930;3.140;2023-03-25T14:25:57;15.50;;;3.60;;
18142;SDS011;9197;50.930;3.140;2023-03-25T14:28:31;12.37;;;3.13;;
18142;SDS011;9197;50.930;3.140;2023-03-25T14:31:06;11.87;;;3.17;;
18142;SDS011;9197;50.930;3.140;2023-03-25T14:36:27;22.50;;;4.77;;
18142;SDS011;9197;50.930;3.140;2023-03-25T14:38:55;14.23;;;3.17;;
18142;SDS011;9197;50.930;3.140;2023-03-25T14:44:16;15.27;;;3.37;;
18142;SDS011;9197;50.930;3.140;2023-03-25T14:46:44;13.63;;;3.17;;
18142;SDS011;9197;50.930;3.140;2023-03-25T14:49:18;16.70;;;3.53;;
18142;SDS011;9197;50.930;3.140;2023-03-25T14:51:49;13.67;;;3.80;;
18142;SDS011;9197;50.930;3.140;2023-03-25T14:54:18;17.13;;;3.13;;
18142;SDS011;9197;50.930;3.140;2023-03-25T14:56:50;16.80;;;4.30;;
18142;SDS011;9197;50.930;3.140;2023-03-25T14:59:19;18.67;;;3.67;;
18142;SDS011;9197;50.930;3.140;2023-03-25T15:01:49;12.73;;;4.20;;
18142;SDS011;9197;50.930;3.140;2023-03-25T15:04:22;18.10;;;3.50;;
18142;SDS011;9197;50.930;3.140;2023-03-25T15:06:52;12.23;;;3.53;;
18142;SDS011;9197;50.930;3.140;2023-03-25T15:09:21;14.93;;;4.20;;
18142;SDS011;9197;50.930;3.140;2023-03-25T15:11:54;14.40;;;4.07;;
18142;SDS011;9197;50.930;3.140;2023-03-25T15:14:23;19.20;;;4.30;;
18142;SDS011;9197;50.930;3.140;2023-03-25T15:16:56;11.47;;;3.37;;
18142;SDS011;9197;50.930;3.140;2023-03-25T15:19:23;15.83;;;4.07;;
18142;SDS011;9197;50.930;3.140;2023-03-25T15:24:55;12.83;;;3.53;;
18142;SDS011;9197;50.930;3.140;2023-03-25T15:27:38;19.13;;;5.93;;
18142;SDS011;9197;50.930;3.140;2023-03-25T15:30:09;13.77;;;3.50;;
18142;SDS011;9197;50.930;3.140;2023-03-25T15:32:43;14.10;;;3.50;;
18142;SDS011;9197;50.930;3.140;2023-03-25T15:35:29;17.63;;;4.30;;